Time;durP1;ratioP1;P1;durP2;ratioP2;P2;SDS_P1;SDS_P2;PMS_P1;PMS_P2;Temp;Humidity;BMP_temperature;BMP_pressure;BME280_temperature;BME280_humidity;BME280_pressure;Samples;Min_cycle;Max_cycle;Signal;HPM_P1;HPM_P2
2022/09/19 00:01:20;;;;;;;17.95;3.35;;;;;;;;;;4943148;29;20106;-77
2022/09/19 00:03:47;;;;;;;17.77;3.00;;;;;;;;;;4938359;28;20032;-78
2022/09/19 00:06:14;;;;;;;21.67;3.45;;;;;;;;;;4923844;29;20091;-79
2022/09/19 00:08:42;;;;;;;23.38;3.55;;;;;;;;;;4942863;29;20138;-81
2022/09/19 00:11:09;;;;;;;28.48;3.88;;;;;;;;;;4942572;29;20032;-84
2022/09/19 00:13:36;;;;;;;22.83;3.75;;;;;;;;;;4917067;29;20032;-79
2022/09/19 00:16:02;;;;;;;23.45;3.28;;;;;;;;;;4940479;29;21014;-83
2022/09/19 00:18:29;;;;;;;22.02;2.88;;;;;;;;;;4935648;29;20074;-78
2022/09/19 00:20:55;;;;;;;18.42;2.65;;;;;;;;;;4954061;28;20039;-77
2022/09/19 00:26:09;;;;;;;30.98;2.55;;;;;;;;;;4949534;29;20099;-78
2022/09/19 00:28:35;;;;;;;22.63;3.10;;;;;;;;;;4937999;29;20332;-78
2022/09/19 00:31:02;;;;;;;16.95;3.10;;;;;;;;;;4943691;29;20039;-83
2022/09/19 00:33:30;;;;;;;20.48;3.33;;;;;;;;;;4942068;29;20028;-79
2022/09/19 00:35:56;;;;;;;22.67;4.00;;;;;;;;;;4942963;29;20035;-77
2022/09/19 00:38:23;;;;;;;15.82;2.55;;;;;;;;;;4951521;28;20102;-78
2022/09/19 00:40:49;;;;;;;22.35;3.97;;;;;;;;;;4939480;29;20035;-78
2022/09/19 00:43:16;;;;;;;19.20;2.80;;;;;;;;;;4940168;29;20050;-77
2022/09/19 00:45:43;;;;;;;24.35;3.88;;;;;;;;;;4922666;29;20478;-78
2022/09/19 00:48:10;;;;;;;22.33;3.10;;;;;;;;;;4942457;29;20026;-79
2022/09/19 00:50:36;;;;;;;20.00;3.95;;;;;;;;;;4955851;28;20035;-78
2022/09/19 00:53:05;;;;;;;19.52;2.97;;;;;;;;;;4941835;29;20091;-79
2022/09/19 00:55:31;;;;;;;22.85;2.60;;;;;;;;;;4957301;28;20030;-77
2022/09/19 00:58:16;;;;;;;19.92;2.60;;;;;;;;;;4923631;29;20127;-77
2022/09/19 01:00:42;;;;;;;19.17;2.50;;;;;;;;;;4936581;29;20071;-78
2022/09/19 01:03:09;;;;;;;17.30;3.28;;;;;;;;;;4903116;29;20044;-77
2022/09/19 01:05:59;;;;;;;18.63;2.75;;;;;;;;;;4933262;29;20032;-79
2022/09/19 01:08:28;;;;;;;19.25;2.22;;;;;;;;;;4932313;29;20054;-77
2022/09/19 01:11:16;;;;;;;22.33;3.10;;;;;;;;;;4939812;29;20104;-77
2022/09/19 01:13:59;;;;;;;16.98;2.95;;;;;;;;;;4935360;29;20018;-77
2022/09/19 01:16:34;;;;;;;18.98;3.85;;;;;;;;;;4933636;29;20058;-77
2022/09/19 01:19:29;;;;;;;24.48;3.03;;;;;;;;;;4935210;29;20015;-77
2022/09/19 01:22:04;;;;;;;24.35;3.92;;;;;;;;;;4900277;29;20075;-78
2022/09/19 01:24:37;;;;;;;19.65;3.58;;;;;;;;;;4934886;28;20034;-78
2022/09/19 01:27:18;;;;;;;23.13;2.85;;;;;;;;;;4937813;29;20036;-78
2022/09/19 01:29:44;;;;;;;17.58;2.58;;;;;;;;;;4917557;29;20091;-79
2022/09/19 01:32:13;;;;;;;21.73;3.25;;;;;;;;;;4936461;29;20039;-78
2022/09/19 01:34:42;;;;;;;18.98;2.50;;;;;;;;;;4935647;29;20039;-78
2022/09/19 01:37:16;;;;;;;15.02;2.88;;;;;;;;;;4918845;29;20039;-77
2022/09/19 01:39:45;;;;;;;18.42;2.45;;;;;;;;;;4936595;29;20015;-77
2022/09/19 01:42:14;;;;;;;22.77;3.97;;;;;;;;;;4935180;29;20069;-77
2022/09/19 01:44:40;;;;;;;26.20;3.40;;;;;;;;;;4938700;29;21062;-77
2022/09/19 01:47:13;;;;;;;16.85;2.50;;;;;;;;;;4936962;29;20532;-77
2022/09/19 01:49:48;;;;;;;19.92;2.35;;;;;;;;;;4944016;28;20067;-78
2022/09/19 01:52:30;;;;;;;19.65;2.85;;;;;;;;;;4930939;29;20008;-77
2022/09/19 01:54:59;;;;;;;18.73;2.67;;;;;;;;;;4931912;29;20027;-77
2022/09/19 01:57:31;;;;;;;21.38;3.55;;;;;;;;;;4930841;29;20040;-78
2022/09/19 01:59:57;;;;;;;16.75;2.45;;;;;;;;;;4932143;29;20095;-77
2022/09/19 02:02:36;;;;;;;15.80;2.53;;;;;;;;;;4909383;29;20517;-77
2022/09/19 02:05:06;;;;;;;19.05;3.38;;;;;;;;;;4927121;29;20027;-77
2022/09/19 02:07:42;;;;;;;20.98;3.35;;;;;;;;;;4941899;28;20034;-77
2022/09/19 02:10:10;;;;;;;15.77;2.72;;;;;;;;;;4942194;28;20043;-77
2022/09/19 02:12:39;;;;;;;19.73;3.10;;;;;;;;;;4924651;29;20044;-78
2022/09/19 02:15:07;;;;;;;15.60;2.78;;;;;;;;;;4912662;29;20176;-78
2022/09/19 02:17:35;;;;;;;16.42;2.83;;;;;;;;;;4925104;29;20768;-78
2022/09/19 02:20:20;;;;;;;18.55;3.13;;;;;;;;;;4929989;29;20036;-77
2022/09/19 02:22:48;;;;;;;19.85;2.85;;;;;;;;;;4924314;29;20024;-79
2022/09/19 02:25:17;;;;;;;29.23;3.22;;;;;;;;;;4924206;29;20024;-78
2022/09/19 02:27:56;;;;;;;20.17;3.10;;;;;;;;;;4942551;28;20119;-77
2022/09/19 02:30:23;;;;;;;22.13;3.42;;;;;;;;;;4923052;29;20660;-78
2022/09/19 02:32:50;;;;;;;22.08;3.20;;;;;;;;;;4915485;29;20032;-77
2022/09/19 02:35:21;;;;;;;14.88;3.28;;;;;;;;;;4899031;29;20027;-82
2022/09/19 02:37:51;;;;;;;21.48;2.92;;;;;;;;;;4915957;29;20035;-79
2022/09/19 02:40:19;;;;;;;23.15;3.92;;;;;;;;;;4931285;29;20392;-76
2022/09/19 02:43:04;;;;;;;22.83;2.85;;;;;;;;;;4930454;29;20070;-78
2022/09/19 02:45:39;;;;;;;25.15;3.10;;;;;;;;;;4927329;29;20510;-77
2022/09/19 02:48:12;;;;;;;20.83;2.90;;;;;;;;;;4929130;29;20039;-77
2022/09/19 02:50:41;;;;;;;18.92;3.80;;;;;;;;;;4931649;29;20067;-78
2022/09/19 02:53:11;;;;;;;31.02;5.00;;;;;;;;;;4933381;29;20544;-77
2022/09/19 02:55:44;;;;;;;22.23;3.97;;;;;;;;;;4934895;29;20067;-77
2022/09/19 02:58:11;;;;;;;16.85;3.00;;;;;;;;;;4939569;29;20643;-78
2022/09/19 03:00:38;;;;;;;30.42;3.10;;;;;;;;;;4915457;29;20054;-80
2022/09/19 03:06:01;;;;;;;23.80;3.28;;;;;;;;;;4930211;29;20539;-77
2022/09/19 03:08:35;;;;;;;22.77;2.92;;;;;;;;;;4931684;29;20032;-77
2022/09/19 03:11:06;;;;;;;24.50;3.85;;;;;;;;;;4933449;29;20032;-78
2022/09/19 03:13:33;;;;;;;31.80;3.95;;;;;;;;;;4933467;29;20036;-77
2022/09/19 03:16:05;;;;;;;20.48;4.20;;;;;;;;;;4931380;29;20035;-79
2022/09/19 03:18:32;;;;;;;19.85;4.13;;;;;;;;;;4929518;29;20086;-77
2022/09/19 03:21:02;;;;;;;18.83;3.47;;;;;;;;;;4934045;29;20106;-87
2022/09/19 03:23:32;;;;;;;24.30;3.92;;;;;;;;;;4933985;29;20036;-77
2022/09/19 03:25:58;;;;;;;19.48;2.90;;;;;;;;;;4932657;29;20034;-79
2022/09/19 03:28:24;;;;;;;22.67;3.13;;;;;;;;;;4934473;29;20027;-78
2022/09/19 03:30:50;;;;;;;36.17;3.22;;;;;;;;;;4934130;29;20095;-77
2022/09/19 03:33:17;;;;;;;24.05;3.05;;;;;;;;;;4928713;29;20122;-79
2022/09/19 03:35:44;;;;;;;26.27;4.43;;;;;;;;;;4929302;29;20044;-77
2022/09/19 03:38:10;;;;;;;27.23;4.00;;;;;;;;;;4935589;29;20130;-77
2022/09/19 03:40:37;;;;;;;34.13;4.05;;;;;;;;;;4932318;29;20126;-77
2022/09/19 03:43:04;;;;;;;20.35;3.63;;;;;;;;;;4936296;29;20490;-85
2022/09/19 03:45:30;;;;;;;22.00;3.40;;;;;;;;;;4915602;29;20059;-77
2022/09/19 03:47:56;;;;;;;18.98;3.53;;;;;;;;;;4942945;28;20520;-77
2022/09/19 03:50:23;;;;;;;20.40;3.75;;;;;;;;;;4908784;29;20055;-77
2022/09/19 03:52:49;;;;;;;16.80;3.17;;;;;;;;;;4907812;29;21345;-77
2022/09/19 03:55:15;;;;;;;17.75;2.80;;;;;;;;;;4909486;29;20175;-77
2022/09/19 03:57:41;;;;;;;29.50;4.50;;;;;;;;;;4908833;29;21119;-76
2022/09/19 04:00:08;;;;;;;17.58;3.33;;;;;;;;;;4904436;29;20051;-77
2022/09/19 04:02:35;;;;;;;23.90;3.78;;;;;;;;;;4906120;29;20032;-77
2022/09/19 04:05:02;;;;;;;22.42;3.50;;;;;;;;;;4905764;29;20127;-77
2022/09/19 04:07:28;;;;;;;29.45;4.93;;;;;;;;;;4907688;29;20029;-77
2022/09/19 04:09:57;;;;;;;28.08;3.85;;;;;;;;;;4911778;29;20040;-77
2022/09/19 04:12:23;;;;;;;16.85;3.05;;;;;;;;;;4895215;29;20307;-77
2022/09/19 04:14:50;;;;;;;31.20;3.78;;;;;;;;;;4906628;29;20028;-76
2022/09/19 04:17:17;;;;;;;17.98;3.70;;;;;;;;;;4906618;29;20028;-77
2022/09/19 04:19:43;;;;;;;15.77;2.80;;;;;;;;;;4909222;29;20466;-77
2022/09/19 04:22:09;;;;;;;18.70;3.40;;;;;;;;;;4908432;29;20028;-77
2022/09/19 04:24:39;;;;;;;17.42;4.47;;;;;;;;;;4914397;29;20028;-77
2022/09/19 04:27:08;;;;;;;18.55;3.83;;;;;;;;;;4913478;29;20028;-77
2022/09/19 04:29:35;;;;;;;20.60;3.03;;;;;;;;;;4912255;29;20482;-76
2022/09/19 04:32:02;;;;;;;24.52;3.65;;;;;;;;;;4915290;29;20044;-77
2022/09/19 04:34:28;;;;;;;22.23;3.53;;;;;;;;;;4894559;29;20059;-78
2022/09/19 04:36:56;;;;;;;25.80;3.80;;;;;;;;;;4909345;29;20450;-78
2022/09/19 04:39:22;;;;;;;26.73;3.78;;;;;;;;;;4916735;29;20060;-77
2022/09/19 04:41:52;;;;;;;27.60;3.95;;;;;;;;;;4911918;29;20031;-77
2022/09/19 04:44:18;;;;;;;32.58;4.40;;;;;;;;;;4914010;29;20027;-77
2022/09/19 04:46:46;;;;;;;34.05;3.88;;;;;;;;;;4891616;29;20054;-77
2022/09/19 04:49:14;;;;;;;20.42;4.00;;;;;;;;;;4924794;29;20044;-76
2022/09/19 04:51:40;;;;;;;21.75;3.03;;;;;;;;;;4930554;29;20024;-77
2022/09/19 04:54:06;;;;;;;22.88;3.20;;;;;;;;;;4932375;29;20039;-78
2022/09/19 04:56:33;;;;;;;29.67;3.50;;;;;;;;;;4928947;29;20046;-77
2022/09/19 04:58:59;;;;;;;20.67;2.90;;;;;;;;;;4929745;29;20032;-79
2022/09/19 05:01:26;;;;;;;27.38;9.02;;;;;;;;;;4914998;29;20055;-79
2022/09/19 05:03:52;;;;;;;14.43;2.58;;;;;;;;;;4929349;29;20501;-77
2022/09/19 05:06:18;;;;;;;20.60;2.35;;;;;;;;;;4929844;29;20114;-77
2022/09/19 05:08:44;;;;;;;15.20;2.72;;;;;;;;;;4928691;29;20043;-77
2022/09/19 05:11:11;;;;;;;16.75;2.42;;;;;;;;;;4928140;29;20042;-77
2022/09/19 05:13:38;;;;;;;17.17;2.63;;;;;;;;;;4928037;29;20095;-77
2022/09/19 05:16:04;;;;;;;18.95;2.15;;;;;;;;;;4929024;29;20174;-78
2022/09/19 05:18:34;;;;;;;15.98;2.05;;;;;;;;;;4923281;29;20031;-78
2022/09/19 05:21:03;;;;;;;19.05;2.03;;;;;;;;;;4931911;29;20032;-78
2022/09/19 05:23:29;;;;;;;9.85;2.05;;;;;;;;;;4949853;28;20118;-77
2022/09/19 05:25:58;;;;;;;14.20;1.90;;;;;;;;;;4928249;29;20076;-77
2022/09/19 05:28:26;;;;;;;33.47;3.67;;;;;;;;;;4919439;29;20377;-77
2022/09/19 05:30:55;;;;;;;15.85;2.47;;;;;;;;;;4918247;29;20107;-78
2022/09/19 05:33:23;;;;;;;20.50;2.78;;;;;;;;;;4927572;29;20040;-77
2022/09/19 05:35:50;;;;;;;15.93;2.30;;;;;;;;;;4928191;29;20038;-77
2022/09/19 05:38:16;;;;;;;15.90;2.78;;;;;;;;;;4930007;29;20093;-76
2022/09/19 05:40:43;;;;;;;22.08;2.40;;;;;;;;;;4926447;29;20032;-76
2022/09/19 05:43:09;;;;;;;11.57;2.05;;;;;;;;;;4927513;29;20034;-77
2022/09/19 05:45:35;;;;;;;23.08;3.05;;;;;;;;;;4908515;29;20027;-76
2022/09/19 05:48:03;;;;;;;17.95;3.45;;;;;;;;;;4930489;29;20082;-79
2022/09/19 05:50:30;;;;;;;14.35;2.33;;;;;;;;;;4926688;29;20039;-78
2022/09/19 05:55:40;;;;;;;14.52;2.10;;;;;;;;;;4929207;29;20091;-76
2022/09/19 05:58:07;;;;;;;8.30;1.73;;;;;;;;;;4916884;29;20396;-77
2022/09/19 06:00:33;;;;;;;18.80;4.30;;;;;;;;;;4909015;29;21865;-77
2022/09/19 06:03:00;;;;;;;18.13;2.05;;;;;;;;;;4929301;29;20032;-78
2022/09/19 06:05:27;;;;;;;13.50;3.13;;;;;;;;;;4915038;29;20028;-77
2022/09/19 06:07:56;;;;;;;9.20;2.47;;;;;;;;;;4928112;29;20068;-76
2022/09/19 06:10:23;;;;;;;14.70;2.25;;;;;;;;;;4932879;28;20058;-78
2022/09/19 06:12:49;;;;;;;11.43;1.98;;;;;;;;;;4934798;29;20007;-77
2022/09/19 06:15:17;;;;;;;22.13;3.35;;;;;;;;;;4938174;29;20081;-77
2022/09/19 06:17:43;;;;;;;9.38;2.20;;;;;;;;;;4924554;29;20434;-78
2022/09/19 06:20:09;;;;;;;11.98;2.10;;;;;;;;;;4922101;29;20493;-77
2022/09/19 06:22:35;;;;;;;13.02;2.50;;;;;;;;;;4936037;29;20051;-77
2022/09/19 06:25:01;;;;;;;13.82;3.15;;;;;;;;;;4937135;29;20059;-77
2022/09/19 06:27:28;;;;;;;11.00;2.15;;;;;;;;;;4939809;29;20059;-79
2022/09/19 06:29:54;;;;;;;18.15;2.80;;;;;;;;;;4939947;29;20032;-77
2022/09/19 06:32:20;;;;;;;15.30;2.45;;;;;;;;;;4938910;29;20089;-78
2022/09/19 06:34:47;;;;;;;15.93;2.83;;;;;;;;;;4922519;29;20031;-79
2022/09/19 06:37:13;;;;;;;21.80;3.13;;;;;;;;;;4941720;29;20126;-78
2022/09/19 06:39:39;;;;;;;23.55;2.80;;;;;;;;;;4939617;29;20497;-78
2022/09/19 06:42:06;;;;;;;17.08;2.55;;;;;;;;;;4931990;29;20035;-77
2022/09/19 06:44:32;;;;;;;23.73;2.85;;;;;;;;;;4942168;29;20031;-78
2022/09/19 06:46:59;;;;;;;21.77;3.65;;;;;;;;;;4937323;29;20059;-80
2022/09/19 06:49:25;;;;;;;20.75;2.63;;;;;;;;;;4947223;29;20043;-78
2022/09/19 06:51:51;;;;;;;15.18;2.40;;;;;;;;;;4916472;29;20043;-79
2022/09/19 06:54:17;;;;;;;16.35;2.45;;;;;;;;;;4942428;29;20059;-78
2022/09/19 06:56:43;;;;;;;15.68;2.65;;;;;;;;;;4936860;29;20122;-78
2022/09/19 06:59:10;;;;;;;23.88;2.42;;;;;;;;;;4949561;29;20760;-78
2022/09/19 07:01:37;;;;;;;13.55;2.20;;;;;;;;;;4942669;29;20074;-78
2022/09/19 07:04:03;;;;;;;16.38;2.50;;;;;;;;;;4915349;29;20043;-78
2022/09/19 07:06:31;;;;;;;15.80;2.15;;;;;;;;;;4941139;29;20042;-77
2022/09/19 07:08:57;;;;;;;11.18;2.10;;;;;;;;;;4925923;29;20051;-77
2022/09/19 07:11:24;;;;;;;13.23;2.03;;;;;;;;;;4946405;29;20417;-77
2022/09/19 07:13:50;;;;;;;9.65;2.03;;;;;;;;;;4939609;29;20040;-79
2022/09/19 07:16:16;;;;;;;15.80;2.83;;;;;;;;;;4936477;29;20031;-77
2022/09/19 07:18:42;;;;;;;15.43;2.45;;;;;;;;;;4935639;29;20236;-77
2022/09/19 07:21:08;;;;;;;14.38;2.55;;;;;;;;;;4943909;29;20409;-76
2022/09/19 07:23:34;;;;;;;19.67;2.53;;;;;;;;;;4916648;29;20059;-78
2022/09/19 07:26:01;;;;;;;15.07;2.25;;;;;;;;;;4942754;29;20039;-77
2022/09/19 07:28:27;;;;;;;15.18;2.35;;;;;;;;;;4939450;29;20269;-76
2022/09/19 07:30:53;;;;;;;17.23;2.50;;;;;;;;;;4939543;29;20034;-78
2022/09/19 07:33:20;;;;;;;14.10;3.15;;;;;;;;;;4945626;29;20039;-76
2022/09/19 07:35:46;;;;;;;13.93;2.40;;;;;;;;;;4944766;29;20034;-76
2022/09/19 07:38:17;;;;;;;13.55;2.33;;;;;;;;;;4940881;29;20052;-76
2022/09/19 07:40:43;;;;;;;19.70;2.85;;;;;;;;;;4940939;29;20068;-76
2022/09/19 07:43:13;;;;;;;14.10;2.45;;;;;;;;;;4945141;29;20027;-77
2022/09/19 07:45:42;;;;;;;19.92;3.85;;;;;;;;;;4937259;29;20473;-77
2022/09/19 07:48:08;;;;;;;18.33;2.30;;;;;;;;;;4941518;29;20028;-77
2022/09/19 07:50:35;;;;;;;19.17;2.38;;;;;;;;;;4931231;29;20592;-77
2022/09/19 07:53:02;;;;;;;15.40;2.45;;;;;;;;;;4914245;29;20126;-78
2022/09/19 07:55:29;;;;;;;11.13;2.58;;;;;;;;;;4913353;29;20043;-78
2022/09/19 07:57:56;;;;;;;15.30;2.55;;;;;;;;;;4915255;29;20101;-77
2022/09/19 08:00:23;;;;;;;13.38;2.60;;;;;;;;;;4914604;29;20044;-79
2022/09/19 08:02:59;;;;;;;11.38;2.95;;;;;;;;;;4929007;29;20094;-78
2022/09/19 08:05:27;;;;;;;13.07;2.45;;;;;;;;;;4914065;29;20028;-78
2022/09/19 08:07:54;;;;;;;13.23;2.22;;;;;;;;;;4930729;29;20032;-78
2022/09/19 08:10:21;;;;;;;17.02;3.25;;;;;;;;;;4930016;29;20119;-78
2022/09/19 08:12:47;;;;;;;12.55;1.85;;;;;;;;;;4914341;29;20032;-77
2022/09/19 08:15:15;;;;;;;12.30;2.75;;;;;;;;;;4912140;29;20075;-78
2022/09/19 08:17:42;;;;;;;15.23;1.98;;;;;;;;;;4915550;29;20080;-77
2022/09/19 08:20:08;;;;;;;13.23;2.80;;;;;;;;;;4914453;29;20750;-77
2022/09/19 08:22:34;;;;;;;19.15;4.18;;;;;;;;;;4911363;29;20032;-78
2022/09/19 08:25:01;;;;;;;12.60;2.15;;;;;;;;;;4912219;29;20151;-78
2022/09/19 08:27:27;;;;;;;10.48;1.70;;;;;;;;;;4912487;29;20567;-78
2022/09/19 08:29:53;;;;;;;9.15;1.58;;;;;;;;;;4925530;29;20036;-77
2022/09/19 08:32:19;;;;;;;8.15;1.73;;;;;;;;;;4928819;29;20537;-77
2022/09/19 08:34:45;;;;;;;12.77;1.67;;;;;;;;;;4911160;29;20047;-78
2022/09/19 08:37:11;;;;;;;15.63;2.33;;;;;;;;;;4924861;29;20385;-77
2022/09/19 08:40:15;;;;;;;6.47;1.70;;;;;;;;;;4911320;29;20099;-77
2022/09/19 08:42:35;;;;;;;6.63;1.25;;;;;;;;;;4908119;29;20592;-79
2022/09/19 08:45:12;;;;;;;10.68;2.42;;;;;;;;;;4911263;29;21845;-81
2022/09/19 08:47:40;;;;;;;9.80;1.90;;;;;;;;;;4913859;29;20115;-77
2022/09/19 08:50:15;;;;;;;7.82;1.77;;;;;;;;;;4928255;29;20059;-78
2022/09/19 08:52:45;;;;;;;12.18;1.67;;;;;;;;;;4932719;29;20119;-77
2022/09/19 08:55:16;;;;;;;7.03;1.48;;;;;;;;;;4933895;29;20443;-77
2022/09/19 08:57:57;;;;;;;10.60;1.40;;;;;;;;;;4932667;29;20043;-77
2022/09/19 09:00:24;;;;;;;7.30;2.15;;;;;;;;;;4942695;29;20098;-76
2022/09/19 09:02:52;;;;;;;5.50;0.90;;;;;;;;;;4936376;29;20047;-77
2022/09/19 09:05:38;;;;;;;7.82;1.27;;;;;;;;;;4931631;29;20031;-76
2022/09/19 09:08:07;;;;;;;10.50;1.48;;;;;;;;;;4925169;29;20043;-77
2022/09/19 09:10:36;;;;;;;8.90;1.48;;;;;;;;;;4938778;29;20034;-77
2022/09/19 09:13:13;;;;;;;7.97;1.33;;;;;;;;;;4931039;29;20042;-76
2022/09/19 09:15:45;;;;;;;10.13;1.90;;;;;;;;;;4918670;29;20038;-77
2022/09/19 09:18:20;;;;;;;9.93;1.40;;;;;;;;;;4917182;29;20039;-77
2022/09/19 09:20:49;;;;;;;13.25;1.63;;;;;;;;;;4933840;29;20110;-77
2022/09/19 09:23:26;;;;;;;9.38;1.65;;;;;;;;;;4933338;29;20028;-77
2022/09/19 09:26:00;;;;;;;6.18;1.20;;;;;;;;;;4931388;29;20031;-77
2022/09/19 09:28:34;;;;;;;6.57;1.42;;;;;;;;;;4943664;29;20036;-76
2022/09/19 09:31:12;;;;;;;6.78;1.67;;;;;;;;;;4920999;29;20040;-77
2022/09/19 09:33:41;;;;;;;10.38;1.63;;;;;;;;;;4934563;29;20560;-77
2022/09/19 09:36:15;;;;;;;9.85;1.50;;;;;;;;;;4921952;29;20043;-77
2022/09/19 09:38:47;;;;;;;9.77;1.80;;;;;;;;;;4918208;29;20035;-77
2022/09/19 09:44:13;;;;;;;12.15;1.98;;;;;;;;;;4937624;29;20385;-77
2022/09/19 09:46:54;;;;;;;14.48;2.20;;;;;;;;;;4941897;29;20031;-78
2022/09/19 09:49:28;;;;;;;8.32;1.55;;;;;;;;;;4939436;29;20049;-76
2022/09/19 09:51:57;;;;;;;11.40;1.98;;;;;;;;;;4937584;29;20047;-76
2022/09/19 09:57:15;;;;;;;12.75;2.38;;;;;;;;;;4945171;29;20097;-77
2022/09/19 10:05:33;;;;;;;11.57;1.83;;;;;;;;;;4925049;29;19922;-77
2022/09/19 10:08:19;;;;;;;11.68;2.03;;;;;;;;;;4919273;29;20100;-76
2022/09/19 10:10:46;;;;;;;9.70;1.42;;;;;;;;;;4935914;29;20082;-77
2022/09/19 10:13:25;;;;;;;9.43;1.70;;;;;;;;;;4943150;29;20597;-76
2022/09/19 10:15:54;;;;;;;13.85;2.67;;;;;;;;;;4913615;29;20472;-76
2022/09/19 10:18:23;;;;;;;11.60;1.70;;;;;;;;;;4943872;29;20042;-77
2022/09/19 10:20:53;;;;;;;9.13;1.58;;;;;;;;;;4920344;29;20047;-79
2022/09/19 10:23:23;;;;;;;12.33;1.87;;;;;;;;;;4942532;29;20027;-79
2022/09/19 10:26:04;;;;;;;8.77;1.42;;;;;;;;;;4948996;29;20068;-78
2022/09/19 10:28:32;;;;;;;10.60;1.67;;;;;;;;;;4943100;29;20457;-79
2022/09/19 10:31:00;;;;;;;12.13;1.95;;;;;;;;;;4937213;29;20035;-79
2022/09/19 10:33:38;;;;;;;12.80;1.98;;;;;;;;;;4938236;29;20034;-78
2022/09/19 10:36:32;;;;;;;26.48;2.60;;;;;;;;;;4939642;29;20449;-83
2022/09/19 10:38:58;;;;;;;9.82;1.67;;;;;;;;;;4939254;29;20067;-78
2022/09/19 10:41:26;;;;;;;12.27;1.90;;;;;;;;;;4944529;29;20119;-78
2022/09/19 10:43:57;;;;;;;8.90;1.75;;;;;;;;;;4952196;28;20066;-78
2022/09/19 10:46:35;;;;;;;7.65;1.48;;;;;;;;;;4914451;29;20552;-78
2022/09/19 10:49:02;;;;;;;13.07;2.00;;;;;;;;;;4933433;29;20098;-77
2022/09/19 10:51:37;;;;;;;10.40;2.28;;;;;;;;;;4907008;29;20044;-78
2022/09/19 10:54:12;;;;;;;11.30;1.63;;;;;;;;;;4920265;29;20020;-78
2022/09/19 10:56:41;;;;;;;10.98;1.67;;;;;;;;;;4918308;29;20051;-78
2022/09/19 10:59:07;;;;;;;10.43;2.35;;;;;;;;;;4904396;29;20035;-77
2022/09/19 11:01:33;;;;;;;9.25;1.60;;;;;;;;;;4895832;29;20028;-77
2022/09/19 11:04:00;;;;;;;13.77;2.25;;;;;;;;;;4908443;29;20592;-76
2022/09/19 11:06:26;;;;;;;8.13;1.25;;;;;;;;;;4912976;29;20032;-76
2022/09/19 11:08:53;;;;;;;10.45;2.17;;;;;;;;;;4928811;29;20082;-76
2022/09/19 11:11:45;;;;;;;10.80;1.40;;;;;;;;;;4920721;29;20481;-75
2022/09/19 11:14:31;;;;;;;7.32;1.60;;;;;;;;;;4918785;29;20055;-76
2022/09/19 11:17:15;;;;;;;9.18;2.00;;;;;;;;;;4914898;29;20028;-75
2022/09/19 11:19:46;;;;;;;6.53;1.42;;;;;;;;;;4921773;29;20605;-75
2022/09/19 11:22:31;;;;;;;10.80;1.83;;;;;;;;;;4933934;28;20059;-75
2022/09/19 11:25:00;;;;;;;7.68;1.63;;;;;;;;;;4910596;29;20036;-75
2022/09/19 11:27:29;;;;;;;15.10;1.75;;;;;;;;;;4901865;29;20028;-76
2022/09/19 11:30:01;;;;;;;9.15;1.27;;;;;;;;;;4925395;29;20039;-76
2022/09/19 11:32:44;;;;;;;6.68;1.40;;;;;;;;;;4912984;29;20024;-75
2022/09/19 11:35:19;;;;;;;8.85;1.65;;;;;;;;;;4920990;29;20059;-75
2022/09/19 11:37:51;;;;;;;9.25;1.55;;;;;;;;;;4910556;29;20560;-78
2022/09/19 11:40:18;;;;;;;8.85;1.10;;;;;;;;;;4912972;29;20036;-76
2022/09/19 11:43:02;;;;;;;9.25;2.15;;;;;;;;;;4914107;29;20032;-76
2022/09/19 11:45:31;;;;;;;9.73;1.42;;;;;;;;;;4913601;29;20091;-75
2022/09/19 11:48:05;;;;;;;10.63;1.30;;;;;;;;;;4910131;29;20036;-75
2022/09/19 11:50:37;;;;;;;6.97;1.33;;;;;;;;;;4918975;29;20075;-76
2022/09/19 11:53:18;;;;;;;9.52;1.80;;;;;;;;;;4922616;29;20442;-76
2022/09/19 11:55:44;;;;;;;13.25;2.03;;;;;;;;;;4890835;29;20042;-75
2022/09/19 11:58:18;;;;;;;10.70;1.48;;;;;;;;;;4920282;29;20561;-75
2022/09/19 12:01:05;;;;;;;7.57;1.20;;;;;;;;;;4925251;29;20099;-75
2022/09/19 12:03:41;;;;;;;7.68;1.05;;;;;;;;;;4904645;29;20661;-76
2022/09/19 12:06:07;;;;;;;8.82;1.55;;;;;;;;;;4912104;29;20134;-76
2022/09/19 12:08:50;;;;;;;6.93;1.13;;;;;;;;;;4903230;29;20040;-76
2022/09/19 12:11:20;;;;;;;8.57;1.20;;;;;;;;;;4919932;29;20028;-75
2022/09/19 12:13:59;;;;;;;6.80;1.50;;;;;;;;;;4920340;29;20071;-76
2022/09/19 12:16:28;;;;;;;6.72;1.30;;;;;;;;;;4914968;29;20032;-76
2022/09/19 12:18:58;;;;;;;8.73;1.35;;;;;;;;;;4914514;29;20041;-77
2022/09/19 12:21:28;;;;;;;9.68;1.60;;;;;;;;;;4921505;29;20028;-77
2022/09/19 12:26:56;;;;;;;7.47;1.10;;;;;;;;;;4928302;29;20115;-75
2022/09/19 12:29:26;;;;;;;9.13;1.55;;;;;;;;;;4925239;29;20176;-78
2022/09/19 12:31:56;;;;;;;6.53;1.00;;;;;;;;;;4919846;29;20063;-78
2022/09/19 12:34:23;;;;;;;6.32;1.17;;;;;;;;;;4901336;29;20328;-76
2022/09/19 12:36:50;;;;;;;9.20;1.50;;;;;;;;;;4918806;29;20036;-77
2022/09/19 12:39:26;;;;;;;8.02;1.13;;;;;;;;;;4921258;29;20032;-76
2022/09/19 12:42:03;;;;;;;5.78;1.00;;;;;;;;;;4926514;29;20040;-77
2022/09/19 12:44:37;;;;;;;5.93;0.85;;;;;;;;;;4926234;29;20510;-76
2022/09/19 12:47:19;;;;;;;8.02;1.33;;;;;;;;;;4903381;29;20039;-77
2022/09/19 12:50:04;;;;;;;6.82;1.00;;;;;;;;;;4934466;29;20076;-76
2022/09/19 12:52:34;;;;;;;12.55;1.83;;;;;;;;;;4920033;29;20115;-78
2022/09/19 12:55:03;;;;;;;8.90;1.40;;;;;;;;;;4929982;28;20015;-77
2022/09/19 12:57:40;;;;;;;5.82;1.23;;;;;;;;;;4930726;29;20036;-78
2022/09/19 13:00:06;;;;;;;7.25;1.35;;;;;;;;;;4928887;29;20046;-78
2022/09/19 13:02:40;;;;;;;6.13;1.25;;;;;;;;;;4925217;29;20108;-76
2022/09/19 13:05:09;;;;;;;8.00;1.30;;;;;;;;;;4941289;28;20082;-77
2022/09/19 13:07:42;;;;;;;11.10;2.20;;;;;;;;;;4933306;29;20032;-76
2022/09/19 13:10:08;;;;;;;5.55;1.05;;;;;;;;;;4932406;29;20115;-76
2022/09/19 13:12:55;;;;;;;5.13;1.63;;;;;;;;;;4936634;29;20046;-76
2022/09/19 13:15:21;;;;;;;4.70;0.90;;;;;;;;;;4922917;29;20118;-76
2022/09/19 13:23:31;;;;;;;6.25;1.10;;;;;;;;;;4922313;29;20051;-76
2022/09/19 13:26:00;;;;;;;6.07;1.00;;;;;;;;;;4913409;29;20256;-78
2022/09/19 13:28:33;;;;;;;6.78;1.17;;;;;;;;;;4888193;29;20095;-77
2022/09/19 13:31:05;;;;;;;6.05;1.25;;;;;;;;;;4918871;29;20447;-76
2022/09/19 13:33:50;;;;;;;7.95;1.27;;;;;;;;;;4921831;29;20088;-75
2022/09/19 13:36:16;;;;;;;8.82;1.35;;;;;;;;;;4922163;29;20088;-75
2022/09/19 13:38:47;;;;;;;6.53;1.65;;;;;;;;;;4923790;29;20039;-76
2022/09/19 13:41:22;;;;;;;6.05;1.35;;;;;;;;;;4917779;29;20080;-75
2022/09/19 13:43:57;;;;;;;6.35;1.13;;;;;;;;;;4912496;29;20052;-77
2022/09/19 13:46:34;;;;;;;5.53;1.65;;;;;;;;;;4915223;29;20486;-79
2022/09/19 13:49:21;;;;;;;4.65;1.02;;;;;;;;;;4923023;29;20119;-78
2022/09/19 13:51:58;;;;;;;5.95;1.30;;;;;;;;;;4904368;29;20037;-78
2022/09/19 13:54:24;;;;;;;8.40;1.40;;;;;;;;;;4917899;29;20428;-77
2022/09/19 13:57:03;;;;;;;8.25;1.27;;;;;;;;;;4917195;29;20032;-77
2022/09/19 13:59:34;;;;;;;6.53;0.95;;;;;;;;;;4929166;29;20072;-78
2022/09/19 14:02:00;;;;;;;7.47;1.42;;;;;;;;;;4923593;29;20384;-78
2022/09/19 14:04:54;;;;;;;15.27;1.55;;;;;;;;;;4898327;29;20055;-78
2022/09/19 14:07:38;;;;;;;9.63;1.40;;;;;;;;;;4917686;29;20375;-78
2022/09/19 14:10:25;;;;;;;23.08;2.13;;;;;;;;;;4927737;29;20044;-78
2022/09/19 14:12:53;;;;;;;12.88;1.67;;;;;;;;;;4920907;29;20035;-79
2022/09/19 14:15:28;;;;;;;11.50;1.30;;;;;;;;;;4914857;29;20039;-81
2022/09/19 14:18:10;;;;;;;9.85;1.42;;;;;;;;;;4909311;29;20040;-77
2022/09/19 14:20:59;;;;;;;8.95;1.40;;;;;;;;;;4893333;29;20043;-78
2022/09/19 14:23:28;;;;;;;7.78;1.30;;;;;;;;;;4912302;29;20152;-77
2022/09/19 14:26:20;;;;;;;6.00;1.08;;;;;;;;;;4911866;29;20064;-78
2022/09/19 14:28:49;;;;;;;11.48;1.33;;;;;;;;;;4880001;29;20032;-77
2022/09/19 14:31:18;;;;;;;8.48;1.52;;;;;;;;;;4889065;29;20130;-77
2022/09/19 14:34:03;;;;;;;5.85;1.40;;;;;;;;;;4919330;29;20066;-77
2022/09/19 14:36:34;;;;;;;5.72;1.05;;;;;;;;;;4924776;29;20052;-77
2022/09/19 14:39:12;;;;;;;20.00;1.73;;;;;;;;;;4912494;29;20028;-78
2022/09/19 14:41:45;;;;;;;15.00;1.50;;;;;;;;;;4927088;29;20042;-78
2022/09/19 14:44:20;;;;;;;14.23;2.10;;;;;;;;;;4906706;29;20086;-79
2022/09/19 14:46:56;;;;;;;16.75;1.38;;;;;;;;;;4908826;29;20090;-76
2022/09/19 14:50:03;;;;;;;8.45;1.33;;;;;;;;;;4919526;29;20149;-75
2022/09/19 14:52:30;;;;;;;10.23;1.70;;;;;;;;;;4867706;29;20060;-75
2022/09/19 14:54:56;;;;;;;11.15;1.50;;;;;;;;;;4868079;29;20833;-76
2022/09/19 14:57:22;;;;;;;6.57;1.27;;;;;;;;;;4890734;29;20055;-76
2022/09/19 14:59:52;;;;;;;8.38;1.60;;;;;;;;;;4925826;29;20047;-75
2022/09/19 15:02:21;;;;;;;11.10;1.40;;;;;;;;;;4946011;28;20122;-76
2022/09/19 15:04:51;;;;;;;8.82;1.80;;;;;;;;;;4925105;29;20046;-75
2022/09/19 15:07:18;;;;;;;7.50;1.63;;;;;;;;;;4925734;29;20024;-77
2022/09/19 15:09:44;;;;;;;10.85;1.80;;;;;;;;;;4946585;28;20770;-76
2022/09/19 15:12:15;;;;;;;11.10;1.73;;;;;;;;;;4930155;29;21036;-76
2022/09/19 15:15:00;;;;;;;8.27;2.03;;;;;;;;;;4926177;29;20083;-76
2022/09/19 15:17:33;;;;;;;15.65;2.33;;;;;;;;;;4930130;29;20043;-76
2022/09/19 15:20:12;;;;;;;19.13;2.80;;;;;;;;;;4930584;29;20056;-76
2022/09/19 15:22:45;;;;;;;13.50;2.35;;;;;;;;;;4932282;29;20038;-76